sensor_id;sensor_type;location;lat;lon;timestamp;pressure;altitude;pressure_sealevel;temperature;humidity
44027;BME280;29696;55.698;37.460;2023-05-03T00:00:49;99707.06;;;7.87;47.49
44027;BME280;29696;55.698;37.460;2023-05-03T00:03:16;99707.31;;;7.84;47.48
44027;BME280;29696;55.698;37.460;2023-05-03T00:05:42;99705.50;;;7.85;47.71
44027;BME280;29696;55.698;37.460;2023-05-03T00:08:09;99704.53;;;7.86;47.85
44027;BME280;29696;55.698;37.460;2023-05-03T00:10:35;99700.47;;;7.82;47.90
44027;BME280;29696;55.698;37.460;2023-05-03T00:13:02;99702.50;;;7.78;47.92
44027;BME280;29696;55.698;37.460;2023-05-03T00:15:28;99700.19;;;7.73;48.36
44027;BME280;29696;55.698;37.460;2023-05-03T00:17:54;99699.22;;;7.74;48.34
44027;BME280;29696;55.698;37.460;2023-05-03T00:20:21;99693.28;;;7.72;47.95
44027;BME280;29696;55.698;37.460;2023-05-03T00:22:47;99689.69;;;7.73;48.12
44027;BME280;29696;55.698;37.460;2023-05-03T00:25:14;99692.53;;;7.70;48.31
44027;BME280;29696;55.698;37.460;2023-05-03T00:27:40;99690.13;;;7.67;48.25
44027;BME280;29696;55.698;37.460;2023-05-03T00:30:07;99689.06;;;7.70;48.56
44027;BME280;29696;55.698;37.460;2023-05-03T00:32:35;99678.66;;;7.68;48.48
44027;BME280;29696;55.698;37.460;2023-05-03T00:35:01;99673.38;;;7.68;48.40
44027;BME280;29696;55.698;37.460;2023-05-03T00:37:30;99681.41;;;7.67;48.88
44027;BME280;29696;55.698;37.460;2023-05-03T00:39:56;99674.25;;;7.69;48.42
44027;BME280;29696;55.698;37.460;2023-05-03T00:42:23;99670.66;;;7.70;48.59
44027;BME280;29696;55.698;37.460;2023-05-03T00:44:49;99670.44;;;7.73;48.43
44027;BME280;29696;55.698;37.460;2023-05-03T00:47:16;99667.81;;;7.73;48.29
44027;BME280;29696;55.698;37.460;2023-05-03T00:49:42;99661.72;;;7.72;48.27
44027;BME280;29696;55.698;37.460;2023-05-03T00:52:09;99658.34;;;7.70;48.58
44027;BME280;29696;55.698;37.460;2023-05-03T00:54:36;99654.97;;;7.68;48.93
44027;BME280;29696;55.698;37.460;2023-05-03T00:57:03;99648.19;;;7.66;48.56
44027;BME280;29696;55.698;37.460;2023-05-03T00:59:31;99641.22;;;7.65;48.60
44027;BME280;29696;55.698;37.460;2023-05-03T01:01:58;99631.44;;;7.67;48.69
44027;BME280;29696;55.698;37.460;2023-05-03T01:04:24;99636.09;;;7.63;48.73
44027;BME280;29696;55.698;37.460;2023-05-03T01:07:17;99631.06;;;7.71;48.66
44027;BME280;29696;55.698;37.460;2023-05-03T01:16:07;99637.31;;;7.70;48.82
44027;BME280;29696;55.698;37.460;2023-05-03T01:18:38;99631.44;;;7.67;48.92
44027;BME280;29696;55.698;37.460;2023-05-03T01:21:06;99630.59;;;7.66;49.14
44027;BME280;29696;55.698;37.460;2023-05-03T01:24:13;99628.94;;;7.76;49.16
44027;BME280;29696;55.698;37.460;2023-05-03T01:26:42;99626.03;;;7.68;49.22
44027;BME280;29696;55.698;37.460;2023-05-03T01:29:09;99613.84;;;7.67;49.07
44027;BME280;29696;55.698;37.460;2023-05-03T01:31:43;99610.66;;;7.75;48.95
44027;BME280;29696;55.698;37.460;2023-05-03T01:37:39;99611.72;;;7.72;49.25
44027;BME280;29696;55.698;37.460;2023-05-03T01:40:07;99608.72;;;7.77;49.25
44027;BME280;29696;55.698;37.460;2023-05-03T01:42:38;99610.19;;;7.81;49.11
44027;BME280;29696;55.698;37.460;2023-05-03T01:45:05;99610.44;;;7.78;49.22
44027;BME280;29696;55.698;37.460;2023-05-03T01:47:32;99604.31;;;7.77;49.30
44027;BME280;29696;55.698;37.460;2023-05-03T01:49:59;99596.31;;;7.79;48.81
44027;BME280;29696;55.698;37.460;2023-05-03T01:52:25;99601.00;;;7.87;49.21
44027;BME280;29696;55.698;37.460;2023-05-03T01:54:52;99601.09;;;7.85;48.96
44027;BME280;29696;55.698;37.460;2023-05-03T01:57:18;99605.06;;;7.91;49.10
44027;BME280;29696;55.698;37.460;2023-05-03T01:59:45;99599.56;;;7.94;49.13
44027;BME280;29696;55.698;37.460;2023-05-03T02:02:11;99603.84;;;7.95;49.14
44027;BME280;29696;55.698;37.460;2023-05-03T02:04:40;99605.41;;;7.97;49.02
44027;BME280;29696;55.698;37.460;2023-05-03T02:07:06;99612.25;;;8.00;49.49
44027;BME280;29696;55.698;37.460;2023-05-03T02:09:33;99609.47;;;8.01;48.99
44027;BME280;29696;55.698;37.460;2023-05-03T02:11:59;99603.28;;;8.03;48.66
44027;BME280;29696;55.698;37.460;2023-05-03T02:14:27;99609.03;;;8.08;48.91
44027;BME280;29696;55.698;37.460;2023-05-03T02:16:53;99606.16;;;8.11;48.72
44027;BME280;29696;55.698;37.460;2023-05-03T02:19:21;99604.97;;;8.15;48.63
44027;BME280;29696;55.698;37.460;2023-05-03T02:21:47;99606.38;;;8.19;48.69
44027;BME280;29696;55.698;37.460;2023-05-03T02:24:15;99610.47;;;8.23;48.45
44027;BME280;29696;55.698;37.460;2023-05-03T02:26:41;99608.53;;;8.25;48.42
44027;BME280;29696;55.698;37.460;2023-05-03T02:29:09;99592.41;;;8.30;47.85
44027;BME280;29696;55.698;37.460;2023-05-03T02:31:36;99600.03;;;8.33;48.14
44027;BME280;29696;55.698;37.460;2023-05-03T02:34:03;99604.72;;;8.40;48.33
44027;BME280;29696;55.698;37.460;2023-05-03T02:36:29;99601.63;;;8.47;47.92
44027;BME280;29696;55.698;37.460;2023-05-03T02:38:58;99596.97;;;8.50;47.65
44027;BME280;29696;55.698;37.460;2023-05-03T02:41:25;99593.00;;;8.56;47.79
44027;BME280;29696;55.698;37.460;2023-05-03T02:43:53;99596.09;;;8.61;47.26
44027;BME280;29696;55.698;37.460;2023-05-03T02:46:19;99597.41;;;8.66;47.27
44027;BME280;29696;55.698;37.460;2023-05-03T02:48:45;99603.88;;;8.74;47.06
44027;BME280;29696;55.698;37.460;2023-05-03T02:51:12;99598.34;;;8.77;46.88
44027;BME280;29696;55.698;37.460;2023-05-03T02:53:39;99601.44;;;8.82;46.93
44027;BME280;29696;55.698;37.460;2023-05-03T02:56:05;99597.84;;;8.83;46.92
44027;BME280;29696;55.698;37.460;2023-05-03T02:58:32;99599.53;;;8.84;47.16
44027;BME280;29696;55.698;37.460;2023-05-03T03:01:01;99599.28;;;8.87;46.99
44027;BME280;29696;55.698;37.460;2023-05-03T03:03:29;99601.78;;;8.88;47.51
44027;BME280;29696;55.698;37.460;2023-05-03T03:05:56;99604.44;;;8.88;47.01
44027;BME280;29696;55.698;37.460;2023-05-03T03:08:23;99602.88;;;8.86;47.02
44027;BME280;29696;55.698;37.460;2023-05-03T03:10:50;99607.06;;;8.88;47.26
44027;BME280;29696;55.698;37.460;2023-05-03T03:13:16;99605.00;;;8.92;47.01
44027;BME280;29696;55.698;37.460;2023-05-03T03:15:43;99602.13;;;8.95;46.97
44027;BME280;29696;55.698;37.460;2023-05-03T03:18:09;99610.63;;;8.99;47.16
44027;BME280;29696;55.698;37.460;2023-05-03T03:20:36;99610.47;;;9.00;47.20
44027;BME280;29696;55.698;37.460;2023-05-03T03:23:02;99606.41;;;9.07;46.81
44027;BME280;29696;55.698;37.460;2023-05-03T03:25:29;99607.81;;;9.11;47.13
44027;BME280;29696;55.698;37.460;2023-05-03T03:27:57;99601.34;;;9.16;46.33
44027;BME280;29696;55.698;37.460;2023-05-03T03:30:25;99607.44;;;9.16;46.20
44027;BME280;29696;55.698;37.460;2023-05-03T03:33:01;99600.13;;;9.20;46.27
44027;BME280;29696;55.698;37.460;2023-05-03T03:35:35;99596.41;;;9.22;46.22
44027;BME280;29696;55.698;37.460;2023-05-03T03:38:02;99613.31;;;9.20;46.38
44027;BME280;29696;55.698;37.460;2023-05-03T03:40:29;99608.03;;;9.20;46.63
44027;BME280;29696;55.698;37.460;2023-05-03T03:42:56;99621.78;;;9.23;46.39
44027;BME280;29696;55.698;37.460;2023-05-03T03:45:24;99624.44;;;9.23;47.00
44027;BME280;29696;55.698;37.460;2023-05-03T03:47:51;99615.31;;;9.27;47.43
44027;BME280;29696;55.698;37.460;2023-05-03T03:50:19;99616.84;;;9.30;48.26
44027;BME280;29696;55.698;37.460;2023-05-03T03:52:45;99627.28;;;9.31;48.26
44027;BME280;29696;55.698;37.460;2023-05-03T03:55:12;99619.47;;;9.30;48.05
44027;BME280;29696;55.698;37.460;2023-05-03T03:57:39;99627.66;;;9.27;48.70
44027;BME280;29696;55.698;37.460;2023-05-03T04:00:07;99632.47;;;9.22;48.82
44027;BME280;29696;55.698;37.460;2023-05-03T04:02:39;99623.84;;;9.20;49.50
44027;BME280;29696;55.698;37.460;2023-05-03T04:05:11;99639.53;;;9.21;49.95
44027;BME280;29696;55.698;37.460;2023-05-03T04:07:38;99637.50;;;9.25;49.59
44027;BME280;29696;55.698;37.460;2023-05-03T04:10:06;99634.63;;;9.28;48.52
44027;BME280;29696;55.698;37.460;2023-05-03T04:12:33;99634.38;;;9.31;48.80
44027;BME280;29696;55.698;37.460;2023-05-03T04:14:59;99623.41;;;9.35;48.00
44027;BME280;29696;55.698;37.460;2023-05-03T04:17:26;99630.25;;;9.38;48.17
44027;BME280;29696;55.698;37.460;2023-05-03T04:19:54;99629.28;;;9.39;47.84
44027;BME280;29696;55.698;37.460;2023-05-03T04:22:21;99629.28;;;9.39;49.37
44027;BME280;29696;55.698;37.460;2023-05-03T04:24:48;99628.31;;;9.40;49.49
44027;BME280;29696;55.698;37.460;2023-05-03T04:27:15;99623.88;;;9.41;49.81
44027;BME280;29696;55.698;37.460;2023-05-03T04:29:43;99630.97;;;9.40;49.07
44027;BME280;29696;55.698;37.460;2023-05-03T04:32:10;99640.28;;;9.44;50.28
44027;BME280;29696;55.698;37.460;2023-05-03T04:34:41;99646.28;;;9.46;51.54
44027;BME280;29696;55.698;37.460;2023-05-03T04:37:08;99658.50;;;9.47;51.56
44027;BME280;29696;55.698;37.460;2023-05-03T04:39:35;99659.94;;;9.51;51.97
44027;BME280;29696;55.698;37.460;2023-05-03T04:42:03;99657.16;;;9.53;52.25
44027;BME280;29696;55.698;37.460;2023-05-03T04:44:30;99647.69;;;9.50;52.79
44027;BME280;29696;55.698;37.460;2023-05-03T04:46:58;99652.66;;;9.44;54.17
44027;BME280;29696;55.698;37.460;2023-05-03T04:49:26;99670.88;;;9.35;53.74
44027;BME280;29696;55.698;37.460;2023-05-03T04:51:53;99676.06;;;9.37;54.91
44027;BME280;29696;55.698;37.460;2023-05-03T04:54:20;99675.22;;;9.36;54.27
44027;BME280;29696;55.698;37.460;2023-05-03T04:56:48;99669.22;;;9.34;53.98
44027;BME280;29696;55.698;37.460;2023-05-03T04:59:17;99662.41;;;9.32;55.50
44027;BME280;29696;55.698;37.460;2023-05-03T05:01:45;99675.22;;;9.36;54.90
44027;BME280;29696;55.698;37.460;2023-05-03T05:04:12;99671.94;;;9.44;54.59
44027;BME280;29696;55.698;37.460;2023-05-03T05:06:44;99670.94;;;9.77;54.16
44027;BME280;29696;55.698;37.460;2023-05-03T05:09:20;99664.63;;;10.11;53.93
44027;BME280;29696;55.698;37.460;2023-05-03T05:11:49;99669.72;;;10.23;52.21
44027;BME280;29696;55.698;37.460;2023-05-03T05:14:16;99660.69;;;10.26;52.22
44027;BME280;29696;55.698;37.460;2023-05-03T05:16:42;99657.56;;;10.32;52.09
44027;BME280;29696;55.698;37.460;2023-05-03T05:19:11;99666.16;;;10.65;51.33
44027;BME280;29696;55.698;37.460;2023-05-03T05:21:38;99662.84;;;10.72;51.16
44027;BME280;29696;55.698;37.460;2023-05-03T05:24:05;99665.66;;;10.71;51.60
44027;BME280;29696;55.698;37.460;2023-05-03T05:26:32;99660.22;;;10.72;51.34
44027;BME280;29696;55.698;37.460;2023-05-03T05:28:59;99654.66;;;10.76;51.59
44027;BME280;29696;55.698;37.460;2023-05-03T05:31:26;99661.94;;;10.83;51.18
44027;BME280;29696;55.698;37.460;2023-05-03T05:33:53;99665.56;;;10.92;51.09
44027;BME280;29696;55.698;37.460;2023-05-03T05:36:19;99661.03;;;11.13;50.66
44027;BME280;29696;55.698;37.460;2023-05-03T05:38:47;99659.47;;;11.69;49.25
44027;BME280;29696;55.698;37.460;2023-05-03T05:41:14;99660.13;;;12.29;48.85
44027;BME280;29696;55.698;37.460;2023-05-03T05:43:41;99668.63;;;12.61;47.47
44027;BME280;29696;55.698;37.460;2023-05-03T05:46:08;99667.53;;;12.63;47.60
44027;BME280;29696;55.698;37.460;2023-05-03T05:48:35;99664.75;;;12.55;47.18
44027;BME280;29696;55.698;37.460;2023-05-03T05:51:02;99668.28;;;12.46;47.58
44027;BME280;29696;55.698;37.460;2023-05-03T05:53:29;99671.50;;;12.40;47.60
44027;BME280;29696;55.698;37.460;2023-05-03T05:55:59;99669.56;;;12.42;48.36
44027;BME280;29696;55.698;37.460;2023-05-03T05:58:28;99669.69;;;12.40;48.18
44027;BME280;29696;55.698;37.460;2023-05-03T06:00:58;99673.75;;;12.34;47.83
44027;BME280;29696;55.698;37.460;2023-05-03T06:03:27;99669.75;;;12.21;47.95
44027;BME280;29696;55.698;37.460;2023-05-03T06:05:54;99676.84;;;12.20;48.79
44027;BME280;29696;55.698;37.460;2023-05-03T06:08:20;99665.75;;;12.54;47.70
44027;BME280;29696;55.698;37.460;2023-05-03T06:10:47;99658.47;;;13.11;46.12
44027;BME280;29696;55.698;37.460;2023-05-03T06:13:14;99663.88;;;13.91;45.05
44027;BME280;29696;55.698;37.460;2023-05-03T06:15:41;99678.81;;;13.92;44.99
44027;BME280;29696;55.698;37.460;2023-05-03T06:18:07;99674.53;;;13.99;44.36
44027;BME280;29696;55.698;37.460;2023-05-03T06:20:34;99682.00;;;13.78;43.96
44027;BME280;29696;55.698;37.460;2023-05-03T06:23:01;99675.88;;;13.59;44.49
44027;BME280;29696;55.698;37.460;2023-05-03T06:25:27;99679.28;;;13.69;44.31
44027;BME280;29696;55.698;37.460;2023-05-03T06:27:54;99676.81;;;14.12;43.36
44027;BME280;29696;55.698;37.460;2023-05-03T06:30:24;99679.88;;;14.25;42.34
44027;BME280;29696;55.698;37.460;2023-05-03T06:32:52;99681.84;;;14.23;42.66
44027;BME280;29696;55.698;37.460;2023-05-03T06:35:19;99679.69;;;14.27;42.95
44027;BME280;29696;55.698;37.460;2023-05-03T06:37:47;99677.28;;;14.42;43.16
44027;BME280;29696;55.698;37.460;2023-05-03T06:40:13;99675.50;;;14.50;42.62
44027;BME280;29696;55.698;37.460;2023-05-03T06:42:41;99680.63;;;14.44;42.72
44027;BME280;29696;55.698;37.460;2023-05-03T06:45:14;99680.56;;;14.35;42.83
44027;BME280;29696;55.698;37.460;2023-05-03T06:47:41;99677.16;;;14.69;42.63
44027;BME280;29696;55.698;37.460;2023-05-03T06:50:08;99672.69;;;15.61;41.17
44027;BME280;29696;55.698;37.460;2023-05-03T06:52:34;99669.00;;;17.23;38.11
44027;BME280;29696;55.698;37.460;2023-05-03T06:55:01;99673.72;;;18.87;36.07
44027;BME280;29696;55.698;37.460;2023-05-03T06:57:29;99678.06;;;21.08;32.06
44027;BME280;29696;55.698;37.460;2023-05-03T06:59:56;99670.97;;;22.54;30.34
44027;BME280;29696;55.698;37.460;2023-05-03T07:02:22;99683.34;;;23.97;28.28
44027;BME280;29696;55.698;37.460;2023-05-03T07:04:48;99677.94;;;23.97;27.09
44027;BME280;29696;55.698;37.460;2023-05-03T07:07:15;99680.19;;;22.98;27.50
44027;BME280;29696;55.698;37.460;2023-05-03T07:09:42;99684.06;;;22.24;28.91
44027;BME280;29696;55.698;37.460;2023-05-03T07:12:08;99691.84;;;21.53;30.29
44027;BME280;29696;55.698;37.460;2023-05-03T07:14:35;99684.34;;;20.80;31.58
44027;BME280;29696;55.698;37.460;2023-05-03T07:17:01;99679.16;;;20.44;32.34
44027;BME280;29696;55.698;37.460;2023-05-03T07:19:28;99686.22;;;20.51;32.02
44027;BME280;29696;55.698;37.460;2023-05-03T07:21:55;99684.53;;;20.44;31.93
44027;BME280;29696;55.698;37.460;2023-05-03T07:24:21;99683.47;;;23.07;29.00
44027;BME280;29696;55.698;37.460;2023-05-03T07:26:50;99689.81;;;25.62;26.26
44027;BME280;29696;55.698;37.460;2023-05-03T07:29:16;99687.22;;;26.56;24.36
44027;BME280;29696;55.698;37.460;2023-05-03T07:31:43;99698.84;;;25.56;25.07
44027;BME280;29696;55.698;37.460;2023-05-03T07:34:10;99700.03;;;24.56;25.53
44027;BME280;29696;55.698;37.460;2023-05-03T07:36:37;99706.16;;;23.63;27.15
44027;BME280;29696;55.698;37.460;2023-05-03T07:39:05;99708.88;;;22.53;28.79
44027;BME280;29696;55.698;37.460;2023-05-03T07:41:32;99709.28;;;22.10;29.49
44027;BME280;29696;55.698;37.460;2023-05-03T07:43:59;99710.53;;;22.54;28.45
44027;BME280;29696;55.698;37.460;2023-05-03T07:46:25;99715.72;;;22.42;29.50
44027;BME280;29696;55.698;37.460;2023-05-03T07:48:52;99718.56;;;21.68;29.43
44027;BME280;29696;55.698;37.460;2023-05-03T07:51:18;99724.69;;;20.93;31.21
44027;BME280;29696;55.698;37.460;2023-05-03T07:53:44;99728.88;;;20.40;32.17
44027;BME280;29696;55.698;37.460;2023-05-03T07:56:11;99731.66;;;20.25;32.61
44027;BME280;29696;55.698;37.460;2023-05-03T07:58:38;99725.44;;;19.96;33.09
44027;BME280;29696;55.698;37.460;2023-05-03T08:01:04;99727.13;;;19.39;33.02
44027;BME280;29696;55.698;37.460;2023-05-03T08:03:30;99723.97;;;19.00;33.88
44027;BME280;29696;55.698;37.460;2023-05-03T08:05:57;99734.06;;;18.60;34.40
44027;BME280;29696;55.698;37.460;2023-05-03T08:08:23;99737.78;;;18.21;35.60
44027;BME280;29696;55.698;37.460;2023-05-03T08:10:51;99749.38;;;17.98;37.03
44027;BME280;29696;55.698;37.460;2023-05-03T08:13:18;99746.06;;;17.65;37.65
44027;BME280;29696;55.698;37.460;2023-05-03T08:15:44;99747.03;;;17.41;37.72
44027;BME280;29696;55.698;37.460;2023-05-03T08:18:11;99753.34;;;17.17;38.33
44027;BME280;29696;55.698;37.460;2023-05-03T08:20:37;99752.72;;;16.99;38.21
44027;BME280;29696;55.698;37.460;2023-05-03T08:23:04;99754.63;;;16.82;38.79
44027;BME280;29696;55.698;37.460;2023-05-03T08:25:31;99757.00;;;16.52;40.26
44027;BME280;29696;55.698;37.460;2023-05-03T08:27:57;99755.53;;;16.25;40.54
44027;BME280;29696;55.698;37.460;2023-05-03T08:30:24;99758.53;;;15.97;41.64
44027;BME280;29696;55.698;37.460;2023-05-03T08:32:51;99774.16;;;15.84;41.90
44027;BME280;29696;55.698;37.460;2023-05-03T08:35:18;99767.16;;;15.75;43.28
44027;BME280;29696;55.698;37.460;2023-05-03T08:37:44;99771.81;;;15.73;43.86
44027;BME280;29696;55.698;37.460;2023-05-03T08:40:11;99771.16;;;15.71;44.16
44027;BME280;29696;55.698;37.460;2023-05-03T08:42:40;99762.78;;;15.66;44.60
44027;BME280;29696;55.698;37.460;2023-05-03T08:45:11;99763.59;;;15.58;45.58
44027;BME280;29696;55.698;37.460;2023-05-03T08:47:40;99754.69;;;15.25;45.38
44027;BME280;29696;55.698;37.460;2023-05-03T08:50:14;99752.84;;;15.25;46.35
44027;BME280;29696;55.698;37.460;2023-05-03T08:52:42;99753.94;;;15.06;46.63
44027;BME280;29696;55.698;37.460;2023-05-03T08:55:09;99751.41;;;14.97;47.11
44027;BME280;29696;55.698;37.460;2023-05-03T08:57:36;99742.50;;;14.80;46.94
44027;BME280;29696;55.698;37.460;2023-05-03T09:00:04;99750.56;;;14.62;48.07
44027;BME280;29696;55.698;37.460;2023-05-03T09:02:34;99748.25;;;14.41;47.49
44027;BME280;29696;55.698;37.460;2023-05-03T09:05:02;99766.38;;;14.20;48.85
44027;BME280;29696;55.698;37.460;2023-05-03T09:07:32;99777.41;;;14.07;50.05
44027;BME280;29696;55.698;37.460;2023-05-03T09:09:58;99770.47;;;13.96;49.21
44027;BME280;29696;55.698;37.460;2023-05-03T09:12:58;99784.44;;;14.16;49.11
44027;BME280;29696;55.698;37.460;2023-05-03T09:15:29;99785.88;;;13.75;48.94
44027;BME280;29696;55.698;37.460;2023-05-03T09:18:14;99783.22;;;13.92;49.76
44027;BME280;29696;55.698;37.460;2023-05-03T09:20:41;99776.16;;;13.65;49.35
44027;BME280;29696;55.698;37.460;2023-05-03T09:26:04;99786.44;;;13.33;50.45
44027;BME280;29696;55.698;37.460;2023-05-03T09:28:41;99795.38;;;13.32;51.20
44027;BME280;29696;55.698;37.460;2023-05-03T09:31:08;99787.66;;;13.01;51.78
44027;BME280;29696;55.698;37.460;2023-05-03T09:33:35;99791.53;;;13.16;52.93
44027;BME280;29696;55.698;37.460;2023-05-03T09:36:03;99796.06;;;13.61;51.70
44027;BME280;29696;55.698;37.460;2023-05-03T09:38:32;99801.69;;;13.94;50.26
44027;BME280;29696;55.698;37.460;2023-05-03T09:40:59;99806.00;;;14.13;49.68
44027;BME280;29696;55.698;37.460;2023-05-03T09:43:26;99804.84;;;14.33;49.35
44027;BME280;29696;55.698;37.460;2023-05-03T09:46:07;99806.06;;;14.57;49.41
44027;BME280;29696;55.698;37.460;2023-05-03T09:48:34;99815.72;;;14.22;49.22
44027;BME280;29696;55.698;37.460;2023-05-03T09:51:02;99809.09;;;14.08;50.05
44027;BME280;29696;55.698;37.460;2023-05-03T09:53:35;99806.41;;;14.18;50.73
44027;BME280;29696;55.698;37.460;2023-05-03T09:56:03;99807.66;;;14.14;50.67
44027;BME280;29696;55.698;37.460;2023-05-03T09:58:31;99804.88;;;14.15;50.37
44027;BME280;29696;55.698;37.460;2023-05-03T10:01:00;99818.38;;;14.22;51.01
44027;BME280;29696;55.698;37.460;2023-05-03T10:06:25;99810.94;;;14.26;51.04
44027;BME280;29696;55.698;37.460;2023-05-03T10:12:09;99806.22;;;14.55;50.54
44027;BME280;29696;55.698;37.460;2023-05-03T10:14:41;99802.81;;;14.71;50.98
44027;BME280;29696;55.698;37.460;2023-05-03T10:20:15;99801.72;;;15.16;49.47
44027;BME280;29696;55.698;37.460;2023-05-03T10:23:24;99801.25;;;15.21;49.46
44027;BME280;29696;55.698;37.460;2023-05-03T10:26:12;99805.53;;;15.05;49.95
44027;BME280;29696;55.698;37.460;2023-05-03T10:28:39;99807.88;;;14.82;50.91
44027;BME280;29696;55.698;37.460;2023-05-03T10:31:05;99802.66;;;14.99;50.01
44027;BME280;29696;55.698;37.460;2023-05-03T10:33:33;99805.44;;;15.23;50.03
44027;BME280;29696;55.698;37.460;2023-05-03T10:36:06;99814.94;;;15.34;49.56
44027;BME280;29696;55.698;37.460;2023-05-03T10:38:35;99801.09;;;15.22;49.36
44027;BME280;29696;55.698;37.460;2023-05-03T10:41:02;99812.09;;;15.27;48.91
44027;BME280;29696;55.698;37.460;2023-05-03T10:43:54;99809.56;;;15.60;48.75
44027;BME280;29696;55.698;37.460;2023-05-03T10:46:30;99806.84;;;15.52;49.21
44027;BME280;29696;55.698;37.460;2023-05-03T10:49:15;99805.13;;;15.69;47.95
44027;BME280;29696;55.698;37.460;2023-05-03T10:51:43;99802.03;;;15.47;47.86
44027;BME280;29696;55.698;37.460;2023-05-03T10:54:10;99809.97;;;15.39;48.45
44027;BME280;29696;55.698;37.460;2023-05-03T10:56:47;99809.53;;;15.52;48.60
44027;BME280;29696;55.698;37.460;2023-05-03T10:59:14;99802.50;;;15.35;48.41
44027;BME280;29696;55.698;37.460;2023-05-03T11:01:43;99817.31;;;15.45;49.37
44027;BME280;29696;55.698;37.460;2023-05-03T11:04:32;99816.78;;;15.68;49.00
44027;BME280;29696;55.698;37.460;2023-05-03T11:07:02;99808.69;;;15.51;49.84
44027;BME280;29696;55.698;37.460;2023-05-03T11:09:31;99812.22;;;15.60;50.13
44027;BME280;29696;55.698;37.460;2023-05-03T11:11:58;99803.22;;;15.53;49.22
44027;BME280;29696;55.698;37.460;2023-05-03T11:14:24;99808.88;;;15.50;49.14
44027;BME280;29696;55.698;37.460;2023-05-03T11:16:51;99803.69;;;15.48;48.79
44027;BME280;29696;55.698;37.460;2023-05-03T11:19:17;99798.69;;;15.45;48.42
44027;BME280;29696;55.698;37.460;2023-05-03T11:21:44;99802.22;;;15.54;47.91
44027;BME280;29696;55.698;37.460;2023-05-03T11:24:10;99792.25;;;15.56;47.66
44027;BME280;29696;55.698;37.460;2023-05-03T11:26:37;99796.06;;;15.53;47.80
44027;BME280;29696;55.698;37.460;2023-05-03T11:29:04;99804.09;;;15.70;48.12
44027;BME280;29696;55.698;37.460;2023-05-03T11:31:31;99797.66;;;15.81;47.95
44027;BME280;29696;55.698;37.460;2023-05-03T11:33:57;99780.84;;;15.80;46.89
44027;BME280;29696;55.698;37.460;2023-05-03T11:36:24;99785.84;;;15.83;47.03
44027;BME280;29696;55.698;37.460;2023-05-03T11:38:52;99784.50;;;15.87;47.65
44027;BME280;29696;55.698;37.460;2023-05-03T11:41:19;99784.66;;;15.94;47.31
44027;BME280;29696;55.698;37.460;2023-05-03T11:43:48;99787.53;;;16.01;46.67
44027;BME280;29696;55.698;37.460;2023-05-03T11:46:20;99796.53;;;16.08;46.93
44027;BME280;29696;55.698;37.460;2023-05-03T11:48:48;99773.00;;;15.87;46.20
44027;BME280;29696;55.698;37.460;2023-05-03T11:51:16;99776.34;;;15.81;47.30
44027;BME280;29696;55.698;37.460;2023-05-03T11:53:46;99779.59;;;15.66;47.62
44027;BME280;29696;55.698;37.460;2023-05-03T11:56:13;99780.16;;;15.78;47.21
44027;BME280;29696;55.698;37.460;2023-05-03T11:58:54;99776.34;;;15.97;47.53
44027;BME280;29696;55.698;37.460;2023-05-03T12:01:24;99781.34;;;15.92;46.12
44027;BME280;29696;55.698;37.460;2023-05-03T12:03:55;99793.66;;;15.85;46.40
44027;BME280;29696;55.698;37.460;2023-05-03T12:06:22;99790.13;;;15.68;46.31
44027;BME280;29696;55.698;37.460;2023-05-03T12:08:49;99795.63;;;15.74;47.04
44027;BME280;29696;55.698;37.460;2023-05-03T12:11:15;99792.66;;;15.86;45.69
44027;BME280;29696;55.698;37.460;2023-05-03T12:13:42;99799.81;;;15.93;45.38
44027;BME280;29696;55.698;37.460;2023-05-03T12:16:09;99803.84;;;15.89;45.48
44027;BME280;29696;55.698;37.460;2023-05-03T12:18:47;99805.66;;;15.97;45.72
44027;BME280;29696;55.698;37.460;2023-05-03T12:21:15;99799.81;;;15.85;45.76
44027;BME280;29696;55.698;37.460;2023-05-03T12:23:42;99796.84;;;16.05;45.92
44027;BME280;29696;55.698;37.460;2023-05-03T12:26:09;99794.19;;;16.46;45.96
44027;BME280;29696;55.698;37.460;2023-05-03T12:28:35;99795.47;;;16.66;45.63
44027;BME280;29696;55.698;37.460;2023-05-03T12:31:02;99787.81;;;16.71;44.50
44027;BME280;29696;55.698;37.460;2023-05-03T12:33:29;99794.16;;;16.62;44.60
44027;BME280;29696;55.698;37.460;2023-05-03T12:35:56;99790.84;;;16.43;44.99
44027;BME280;29696;55.698;37.460;2023-05-03T12:38:23;99795.34;;;16.27;44.67
44027;BME280;29696;55.698;37.460;2023-05-03T12:40:49;99788.00;;;16.20;44.40
44027;BME280;29696;55.698;37.460;2023-05-03T12:43:16;99790.88;;;16.19;44.35
44027;BME280;29696;55.698;37.460;2023-05-03T12:45:42;99785.69;;;16.17;44.95
44027;BME280;29696;55.698;37.460;2023-05-03T12:48:09;99779.34;;;16.35;44.34
44027;BME280;29696;55.698;37.460;2023-05-03T12:50:36;99790.34;;;16.32;44.84
44027;BME280;29696;55.698;37.460;2023-05-03T12:53:02;99786.03;;;16.31;45.27
44027;BME280;29696;55.698;37.460;2023-05-03T12:55:29;99781.72;;;16.22;45.65
44027;BME280;29696;55.698;37.460;2023-05-03T12:58:00;99785.00;;;15.99;45.87
44027;BME280;29696;55.698;37.460;2023-05-03T13:00:26;99786.47;;;15.85;46.09
44027;BME280;29696;55.698;37.460;2023-05-03T13:02:53;99793.44;;;15.70;47.17
44027;BME280;29696;55.698;37.460;2023-05-03T13:05:20;99794.22;;;15.54;47.24
44027;BME280;29696;55.698;37.460;2023-05-03T13:07:47;99799.19;;;15.41;47.66
44027;BME280;29696;55.698;37.460;2023-05-03T13:10:13;99798.47;;;15.30;47.91
44027;BME280;29696;55.698;37.460;2023-05-03T13:12:40;99799.63;;;15.28;48.03
44027;BME280;29696;55.698;37.460;2023-05-03T13:15:07;99796.94;;;15.20;48.09
44027;BME280;29696;55.698;37.460;2023-05-03T13:17:34;99811.53;;;15.16;48.53
44027;BME280;29696;55.698;37.460;2023-05-03T13:20:00;99813.00;;;15.10;48.52